Time;durP1;ratioP1;P1;durP2;ratioP2;P2;SDS_P1;SDS_P2;PMS_P1;PMS_P2;Temp;Humidity;BMP_temperature;BMP_pressure;BME280_temperature;BME280_humidity;BME280_pressure;Samples;Min_cycle;Max_cycle;Signal;HPM_P1;HPM_P2
2021/03/30 00:00:18;;;;;;;2.90;2.20;;;6.90;99.90;;;;;;487494;244;27820;-72
2021/03/30 00:02:20;;;;;;;2.80;2.57;;;6.90;99.90;;;;;;487482;244;28846;-72
2021/03/30 00:04:21;;;;;;;3.30;2.37;;;6.80;99.90;;;;;;487433;244;28052;-73
2021/03/30 00:06:22;;;;;;;3.10;2.10;;;6.80;99.90;;;;;;487397;244;28077;-72
2021/03/30 00:08:23;;;;;;;4.30;2.62;;;6.70;99.90;;;;;;487352;244;28299;-73
2021/03/30 00:10:25;;;;;;;3.47;2.43;;;6.70;99.90;;;;;;487365;244;27935;-73
2021/03/30 00:12:26;;;;;;;3.83;2.50;;;6.70;99.90;;;;;;487418;244;28477;-72
2021/03/30 00:14:27;;;;;;;2.30;2.10;;;6.60;99.90;;;;;;487373;244;29438;-73
2021/03/30 00:16:28;;;;;;;7.60;2.60;;;6.60;99.90;;;;;;487359;244;28442;-72
2021/03/30 00:18:30;;;;;;;3.33;2.40;;;6.60;99.90;;;;;;487380;244;28928;-73
2021/03/30 00:20:31;;;;;;;2.58;2.25;;;6.60;99.90;;;;;;487368;244;28802;-72
2021/03/30 00:22:32;;;;;;;2.43;2.10;;;6.60;99.90;;;;;;487366;244;27624;-72
2021/03/30 00:24:33;;;;;;;2.58;2.15;;;6.60;99.90;;;;;;487332;244;28712;-73
2021/03/30 00:26:35;;;;;;;2.27;2.03;;;6.60;99.90;;;;;;487316;244;27521;-73
2021/03/30 00:28:36;;;;;;;3.60;2.17;;;6.60;99.90;;;;;;487408;244;28857;-72
2021/03/30 00:30:37;;;;;;;5.13;2.80;;;6.50;99.90;;;;;;487369;244;28519;-72
2021/03/30 00:32:39;;;;;;;4.72;2.92;;;6.50;99.90;;;;;;487497;244;29314;-73
2021/03/30 00:34:40;;;;;;;3.37;2.27;;;6.50;99.90;;;;;;487512;244;28101;-72
2021/03/30 00:36:41;;;;;;;3.30;2.43;;;6.50;99.90;;;;;;487481;244;28717;-73
2021/03/30 00:38:42;;;;;;;4.73;2.40;;;6.50;99.90;;;;;;487537;244;27959;-73
2021/03/30 00:40:44;;;;;;;2.95;2.55;;;6.60;99.90;;;;;;487523;244;28042;-73
2021/03/30 00:42:45;;;;;;;4.18;2.75;;;6.50;99.90;;;;;;487476;244;27986;-72
2021/03/30 00:44:46;;;;;;;4.93;2.10;;;6.60;99.90;;;;;;487467;244;27521;-72
2021/03/30 00:46:47;;;;;;;3.60;2.50;;;6.60;99.90;;;;;;487392;244;28054;-72
2021/03/30 00:48:49;;;;;;;3.47;2.20;;;6.60;99.90;;;;;;487396;244;28565;-73
2021/03/30 00:50:50;;;;;;;4.28;2.40;;;6.60;99.90;;;;;;487418;244;27942;-72
2021/03/30 00:52:51;;;;;;;3.03;2.67;;;6.60;99.90;;;;;;487365;244;28002;-72
2021/03/30 00:54:52;;;;;;;2.60;2.20;;;6.50;99.90;;;;;;487347;244;28825;-72
2021/03/30 00:56:54;;;;;;;2.78;2.58;;;6.50;99.90;;;;;;487341;244;28411;-73
2021/03/30 00:58:56;;;;;;;1.80;1.70;;;6.50;99.90;;;;;;487414;244;27539;-73
2021/03/30 01:00:56;;;;;;;2.63;2.27;;;6.40;99.90;;;;;;487382;244;27978;-72
2021/03/30 01:02:57;;;;;;;6.10;2.33;;;6.40;99.90;;;;;;487218;244;27967;-72
2021/03/30 01:04:59;;;;;;;2.87;2.20;;;6.30;99.90;;;;;;487322;244;28181;-73
2021/03/30 01:07:00;;;;;;;2.37;2.20;;;6.30;99.90;;;;;;487308;244;28551;-73
2021/03/30 01:09:01;;;;;;;6.47;2.60;;;6.20;99.90;;;;;;487352;243;28318;-72
2021/03/30 01:11:02;;;;;;;2.97;2.47;;;6.30;99.90;;;;;;487399;244;27480;-73
2021/03/30 01:13:04;;;;;;;6.70;2.47;;;6.30;99.90;;;;;;487327;244;27508;-73
2021/03/30 01:15:05;;;;;;;3.67;2.23;;;6.30;99.90;;;;;;487306;244;29330;-70
2021/03/30 01:17:06;;;;;;;4.70;2.40;;;6.20;99.90;;;;;;487310;244;29305;-73
2021/03/30 01:19:07;;;;;;;3.45;2.50;;;6.10;99.90;;;;;;487362;244;28129;-72
2021/03/30 01:21:09;;;;;;;5.22;2.60;;;6.00;99.90;;;;;;487636;244;27465;-73
2021/03/30 01:23:10;;;;;;;3.47;2.60;;;5.90;99.90;;;;;;487668;244;27474;-72
2021/03/30 01:25:11;;;;;;;6.28;2.58;;;5.90;99.90;;;;;;487676;244;27486;-73
2021/03/30 01:27:12;;;;;;;4.65;2.45;;;6.00;99.90;;;;;;487667;244;27468;-73
2021/03/30 01:29:14;;;;;;;4.00;2.30;;;6.10;99.90;;;;;;487729;244;28104;-72
2021/03/30 01:31:15;;;;;;;4.75;2.30;;;6.00;99.90;;;;;;487677;244;27496;-72
2021/03/30 01:33:16;;;;;;;3.80;2.37;;;6.00;99.90;;;;;;487675;244;27475;-72
2021/03/30 01:35:17;;;;;;;3.40;2.70;;;6.00;99.90;;;;;;487671;244;27474;-72
2021/03/30 01:37:19;;;;;;;2.67;2.47;;;6.00;99.90;;;;;;487362;244;27603;-72
2021/03/30 01:39:20;;;;;;;2.70;2.40;;;6.00;99.90;;;;;;487347;244;27464;-72
2021/03/30 01:41:21;;;;;;;4.53;2.55;;;6.00;99.90;;;;;;487343;244;27988;-73
2021/03/30 01:43:22;;;;;;;3.83;2.15;;;6.00;99.90;;;;;;487340;244;27997;-73
2021/03/30 01:45:24;;;;;;;3.53;2.60;;;6.00;99.90;;;;;;487324;244;27512;-72
2021/03/30 01:47:25;;;;;;;6.35;3.08;;;5.90;99.90;;;;;;487350;244;27605;-72
2021/03/30 01:49:26;;;;;;;5.22;2.35;;;5.90;99.90;;;;;;487353;244;27609;-73
2021/03/30 01:51:27;;;;;;;2.70;2.50;;;5.90;99.90;;;;;;487326;244;27519;-73
2021/03/30 01:53:29;;;;;;;2.53;2.33;;;5.90;99.90;;;;;;487339;244;27516;-72
2021/03/30 01:55:30;;;;;;;3.25;2.60;;;5.90;99.90;;;;;;487351;244;27971;-73
2021/03/30 01:57:31;;;;;;;3.22;2.25;;;5.90;99.90;;;;;;487370;244;28053;-73
2021/03/30 01:59:32;;;;;;;2.97;2.20;;;6.00;99.90;;;;;;487292;244;27505;-73
2021/03/30 02:01:34;;;;;;;2.70;2.50;;;6.00;99.90;;;;;;487242;244;27506;-72
2021/03/30 02:03:35;;;;;;;2.67;2.10;;;6.00;99.90;;;;;;487350;244;27861;-72
2021/03/30 02:05:36;;;;;;;3.08;2.17;;;6.00;99.90;;;;;;487336;244;27516;-73
2021/03/30 02:07:38;;;;;;;2.78;2.53;;;6.10;99.90;;;;;;487349;244;27518;-73
2021/03/30 02:09:43;;;;;;;2.70;2.50;;;6.10;99.90;;;;;;487425;244;28049;-73
2021/03/30 02:11:49;;;;;;;3.00;2.23;;;6.00;99.90;;;;;;487235;243;27460;-73
2021/03/30 02:13:52;;;;;;;3.22;2.58;;;6.00;99.90;;;;;;487207;243;28144;-72
2021/03/30 02:15:45;;;;;;;2.75;2.55;;;6.00;99.90;;;;;;487015;243;28126;-72
2021/03/30 02:17:47;;;;;;;4.00;2.47;;;6.00;99.90;;;;;;487488;244;27523;-73
2021/03/30 02:19:48;;;;;;;2.95;2.65;;;5.90;99.90;;;;;;487478;244;27506;-72
2021/03/30 02:21:49;;;;;;;2.53;2.30;;;5.80;99.90;;;;;;487452;244;27471;-73
2021/03/30 02:23:50;;;;;;;3.90;2.80;;;5.80;99.90;;;;;;487335;244;27571;-72
2021/03/30 02:25:52;;;;;;;5.93;2.80;;;5.70;99.90;;;;;;487335;244;27532;-73
2021/03/30 02:27:53;;;;;;;3.65;2.60;;;5.70;99.90;;;;;;487397;243;27941;-72
2021/03/30 02:29:54;;;;;;;4.12;3.05;;;5.60;99.90;;;;;;487391;244;27527;-73
2021/03/30 02:31:55;;;;;;;4.75;2.62;;;5.60;99.90;;;;;;487361;244;27508;-73
2021/03/30 02:33:57;;;;;;;3.92;2.83;;;5.60;99.90;;;;;;487334;244;27642;-73
2021/03/30 02:35:58;;;;;;;4.62;2.85;;;5.60;99.90;;;;;;487268;244;27582;-73
2021/03/30 02:37:59;;;;;;;3.53;2.50;;;5.50;99.90;;;;;;487311;244;27492;-72
2021/03/30 02:40:00;;;;;;;5.85;2.70;;;5.60;99.90;;;;;;487331;244;27643;-72
2021/03/30 02:42:02;;;;;;;6.15;2.90;;;5.60;99.90;;;;;;487321;244;28006;-73
2021/03/30 02:44:03;;;;;;;4.28;2.78;;;5.60;99.90;;;;;;487329;244;27512;-73
2021/03/30 02:46:04;;;;;;;3.22;2.37;;;5.60;99.90;;;;;;487342;244;27538;-73
2021/03/30 02:48:05;;;;;;;4.07;2.85;;;5.60;99.90;;;;;;487340;244;27485;-72
2021/03/30 02:50:07;;;;;;;5.68;3.03;;;5.60;99.90;;;;;;487325;244;27619;-72
2021/03/30 02:52:08;;;;;;;7.78;2.95;;;5.60;99.90;;;;;;487352;244;27582;-72
2021/03/30 02:54:09;;;;;;;4.45;2.60;;;5.60;99.90;;;;;;487342;244;27991;-72
2021/03/30 02:56:10;;;;;;;2.90;2.60;;;5.60;99.90;;;;;;487362;244;28854;-72
2021/03/30 02:58:12;;;;;;;2.83;1.90;;;5.50;99.90;;;;;;487346;244;27515;-73
2021/03/30 03:00:13;;;;;;;3.00;2.70;;;5.50;99.90;;;;;;487357;244;27492;-72
2021/03/30 03:02:14;;;;;;;4.60;2.65;;;5.50;99.90;;;;;;487336;244;27993;-72
2021/03/30 03:04:15;;;;;;;5.87;2.60;;;5.40;99.90;;;;;;487338;244;27519;-73
2021/03/30 03:06:17;;;;;;;4.65;2.60;;;5.40;99.90;;;;;;487452;244;27522;-73
2021/03/30 03:08:18;;;;;;;2.90;2.60;;;5.40;99.90;;;;;;487372;244;27537;-72
2021/03/30 03:10:19;;;;;;;6.10;2.78;;;5.30;99.90;;;;;;487343;244;28048;-72
2021/03/30 03:12:20;;;;;;;4.40;2.90;;;5.40;99.90;;;;;;487309;244;27981;-72
2021/03/30 03:14:22;;;;;;;3.65;2.72;;;5.40;99.90;;;;;;487337;244;28120;-73
2021/03/30 03:16:23;;;;;;;5.97;3.12;;;5.50;99.90;;;;;;487354;244;27568;-73
2021/03/30 03:18:24;;;;;;;3.10;2.60;;;5.50;99.90;;;;;;487352;244;27516;-73
2021/03/30 03:20:26;;;;;;;4.97;2.60;;;5.40;99.90;;;;;;487416;242;27470;-72
2021/03/30 03:22:27;;;;;;;2.83;2.53;;;5.40;99.90;;;;;;487376;244;27524;-72
2021/03/30 03:24:28;;;;;;;3.00;2.70;;;5.40;99.90;;;;;;487478;244;27991;-74
2021/03/30 03:26:29;;;;;;;4.68;2.75;;;5.30;99.90;;;;;;487499;244;28037;-70
2021/03/30 03:28:31;;;;;;;7.00;3.00;;;5.30;99.90;;;;;;487501;244;27583;-71
2021/03/30 03:30:32;;;;;;;4.93;3.17;;;5.20;99.90;;;;;;487526;244;27505;-71
2021/03/30 03:32:33;;;;;;;3.60;2.90;;;5.20;99.90;;;;;;487465;244;27483;-70
2021/03/30 03:34:34;;;;;;;4.95;2.70;;;5.30;99.90;;;;;;487089;244;27518;-70
2021/03/30 03:36:36;;;;;;;5.93;3.35;;;5.30;99.90;;;;;;486701;244;27912;-70
2021/03/30 03:38:37;;;;;;;3.70;2.85;;;5.20;99.90;;;;;;487373;244;27604;-70
2021/03/30 03:40:38;;;;;;;8.30;2.75;;;5.20;99.90;;;;;;487363;244;28046;-71
2021/03/30 03:42:39;;;;;;;4.43;3.08;;;5.20;99.90;;;;;;487379;244;28001;-70
2021/03/30 03:44:41;;;;;;;3.10;2.75;;;5.20;99.90;;;;;;487402;244;28004;-71
2021/03/30 03:46:42;;;;;;;6.53;3.15;;;5.20;99.90;;;;;;487370;244;27488;-70
2021/03/30 03:48:43;;;;;;;6.85;3.40;;;5.30;99.90;;;;;;487270;244;27609;-71
2021/03/30 03:50:44;;;;;;;3.78;2.92;;;5.30;99.90;;;;;;487348;244;27539;-70
2021/03/30 03:52:46;;;;;;;6.78;3.33;;;5.30;99.90;;;;;;487346;244;27599;-70
2021/03/30 03:54:47;;;;;;;3.55;3.00;;;5.30;99.90;;;;;;487400;244;27549;-71
2021/03/30 03:56:48;;;;;;;5.12;3.00;;;5.30;99.90;;;;;;487405;244;28747;-70
2021/03/30 03:58:49;;;;;;;5.20;2.47;;;5.10;99.90;;;;;;487349;244;27999;-71
2021/03/30 04:00:51;;;;;;;8.23;3.20;;;5.10;99.90;;;;;;487381;244;28086;-70
2021/03/30 04:02:52;;;;;;;5.65;3.50;;;5.20;99.90;;;;;;487348;244;27606;-71
2021/03/30 04:04:53;;;;;;;5.12;3.15;;;5.20;99.90;;;;;;487379;244;27510;-70
2021/03/30 04:06:54;;;;;;;5.15;2.70;;;5.10;99.90;;;;;;487329;244;27512;-70
2021/03/30 04:08:56;;;;;;;4.32;2.97;;;5.10;99.90;;;;;;487322;244;27520;-70
2021/03/30 04:10:57;;;;;;;3.75;3.00;;;5.00;99.90;;;;;;487353;244;27599;-70
2021/03/30 04:12:58;;;;;;;5.62;3.25;;;4.90;99.90;;;;;;487328;244;27511;-70
2021/03/30 04:14:59;;;;;;;5.82;3.33;;;5.00;99.90;;;;;;487344;244;28060;-70
2021/03/30 04:17:01;;;;;;;4.05;3.10;;;5.00;99.90;;;;;;487340;244;27516;-72
2021/03/30 04:19:02;;;;;;;6.80;3.30;;;5.00;99.90;;;;;;487324;244;27618;-71
2021/03/30 04:21:03;;;;;;;12.30;2.97;;;4.90;99.90;;;;;;487350;244;27500;-70
2021/03/30 04:23:05;;;;;;;6.60;3.20;;;5.00;99.90;;;;;;487348;244;27527;-70
2021/03/30 04:25:06;;;;;;;6.45;3.20;;;4.90;99.90;;;;;;487388;244;27558;-70
2021/03/30 04:27:07;;;;;;;6.00;3.42;;;5.00;99.90;;;;;;487445;244;28102;-71
2021/03/30 04:29:08;;;;;;;6.68;3.12;;;5.00;99.90;;;;;;487366;244;28083;-71
2021/03/30 04:31:09;;;;;;;5.35;2.78;;;5.10;99.90;;;;;;487333;244;28106;-70
2021/03/30 04:33:11;;;;;;;4.10;2.90;;;5.10;99.90;;;;;;487402;244;27609;-71
2021/03/30 04:35:12;;;;;;;5.47;3.00;;;5.20;99.90;;;;;;487469;244;27472;-72
2021/03/30 04:37:13;;;;;;;3.50;3.10;;;5.20;99.90;;;;;;487474;244;27628;-72
2021/03/30 04:39:15;;;;;;;3.92;3.40;;;5.20;99.90;;;;;;487509;244;27492;-73
2021/03/30 04:41:16;;;;;;;6.65;3.30;;;5.10;99.90;;;;;;487518;244;27557;-72
2021/03/30 04:43:17;;;;;;;4.50;3.05;;;5.10;99.90;;;;;;487516;244;27511;-72
2021/03/30 04:45:18;;;;;;;6.45;3.33;;;5.00;99.90;;;;;;487490;244;28023;-72
2021/03/30 04:47:21;;;;;;;4.30;3.10;;;5.00;99.90;;;;;;487481;244;27504;-72
2021/03/30 04:49:21;;;;;;;8.23;3.65;;;5.00;99.90;;;;;;487393;243;27512;-73
2021/03/30 04:51:22;;;;;;;3.92;3.00;;;5.00;99.90;;;;;;487475;244;27483;-72
2021/03/30 04:53:23;;;;;;;4.30;3.45;;;5.00;99.90;;;;;;487392;244;27511;-73
2021/03/30 04:55:25;;;;;;;8.65;3.80;;;5.00;99.90;;;;;;487358;244;27572;-72
2021/03/30 04:57:26;;;;;;;4.37;3.33;;;4.90;99.90;;;;;;487336;243;27602;-72
2021/03/30 04:59:27;;;;;;;4.82;3.80;;;5.00;99.90;;;;;;487316;244;27531;-72
2021/03/30 05:01:28;;;;;;;7.78;3.50;;;5.00;99.90;;;;;;487336;244;28070;-72
2021/03/30 05:03:30;;;;;;;5.78;3.42;;;4.90;99.90;;;;;;487382;244;28014;-72
2021/03/30 05:05:31;;;;;;;5.03;3.53;;;5.00;99.90;;;;;;487414;244;28790;-72
2021/03/30 05:07:32;;;;;;;3.47;2.97;;;5.00;99.90;;;;;;487395;244;27492;-72
2021/03/30 05:09:33;;;;;;;4.70;3.20;;;5.00;99.90;;;;;;487446;244;27589;-73
2021/03/30 05:11:35;;;;;;;6.53;3.30;;;5.00;99.90;;;;;;487455;244;27468;-72
2021/03/30 05:13:36;;;;;;;6.25;3.60;;;5.00;99.90;;;;;;487470;244;27501;-72
2021/03/30 05:15:37;;;;;;;4.45;3.17;;;5.00;99.90;;;;;;487450;244;27553;-73
2021/03/30 05:17:38;;;;;;;5.35;3.55;;;5.00;99.90;;;;;;487447;244;27490;-72
2021/03/30 05:19:40;;;;;;;5.57;3.47;;;4.90;99.90;;;;;;487451;244;28165;-72
2021/03/30 05:21:41;;;;;;;6.50;3.83;;;4.90;99.90;;;;;;487416;244;27657;-72
2021/03/30 05:23:42;;;;;;;8.05;3.50;;;5.00;99.90;;;;;;487450;244;27514;-72
2021/03/30 05:25:43;;;;;;;5.18;3.08;;;5.00;99.90;;;;;;487373;244;27520;-72
2021/03/30 05:27:45;;;;;;;5.35;3.35;;;5.00;99.90;;;;;;486916;244;27612;-73
2021/03/30 05:29:46;;;;;;;5.78;3.25;;;5.00;99.90;;;;;;487112;244;27532;-72
2021/03/30 05:31:47;;;;;;;7.07;4.12;;;5.00;99.90;;;;;;487301;244;27513;-73
2021/03/30 05:33:48;;;;;;;4.90;3.83;;;5.00;99.90;;;;;;487340;244;28010;-72
2021/03/30 05:35:50;;;;;;;5.43;3.55;;;5.00;99.90;;;;;;487332;244;28030;-72
2021/03/30 05:37:51;;;;;;;10.45;4.25;;;5.00;99.90;;;;;;487347;244;27506;-73
2021/03/30 05:39:52;;;;;;;6.75;4.07;;;5.10;99.90;;;;;;487344;244;27527;-73
2021/03/30 05:41:53;;;;;;;7.82;4.55;;;5.10;99.90;;;;;;487359;244;27582;-73
2021/03/30 05:43:55;;;;;;;11.02;5.30;;;5.10;99.90;;;;;;487341;244;27520;-74
2021/03/30 05:45:56;;;;;;;15.60;6.50;;;5.10;99.90;;;;;;487316;243;27532;-72
2021/03/30 05:47:58;;;;;;;12.48;6.75;;;5.20;99.90;;;;;;487311;244;29864;-72
2021/03/30 05:50:00;;;;;;;18.20;8.55;;;5.20;99.90;;;;;;487361;244;27471;-72
2021/03/30 05:52:00;;;;;;;15.65;7.25;;;5.20;99.90;;;;;;487266;244;27587;-73
2021/03/30 05:54:01;;;;;;;16.73;7.28;;;5.20;99.90;;;;;;487324;244;27520;-73
2021/03/30 05:56:02;;;;;;;18.62;7.72;;;5.30;99.90;;;;;;487351;244;27530;-72
2021/03/30 05:58:04;;;;;;;19.17;6.80;;;5.30;99.90;;;;;;487347;244;28027;-74
2021/03/30 06:00:05;;;;;;;12.63;5.85;;;5.30;99.90;;;;;;487338;244;28022;-73
2021/03/30 06:02:06;;;;;;;15.55;6.45;;;5.30;99.90;;;;;;487368;244;27510;-73
2021/03/30 06:04:07;;;;;;;16.17;6.70;;;5.30;99.90;;;;;;487363;244;27594;-73
2021/03/30 06:06:09;;;;;;;16.02;6.75;;;5.30;99.90;;;;;;487405;244;27524;-72
2021/03/30 06:08:10;;;;;;;12.35;6.53;;;5.30;99.90;;;;;;487526;244;27544;-73
2021/03/30 06:10:11;;;;;;;12.27;6.20;;;5.40;99.90;;;;;;487509;244;27470;-73
2021/03/30 06:12:12;;;;;;;7.10;4.90;;;5.40;99.90;;;;;;487432;244;27533;-72
2021/03/30 06:14:14;;;;;;;5.93;4.40;;;5.50;99.90;;;;;;487344;244;27524;-72
2021/03/30 06:16:15;;;;;;;9.57;4.90;;;5.50;99.90;;;;;;487340;244;27520;-72
2021/03/30 06:18:16;;;;;;;9.48;3.92;;;5.50;99.90;;;;;;487354;244;27528;-73
2021/03/30 06:20:17;;;;;;;7.95;4.05;;;5.60;99.90;;;;;;487340;244;27527;-72
2021/03/30 06:22:19;;;;;;;8.70;4.10;;;5.60;99.90;;;;;;487331;244;27512;-73
2021/03/30 06:24:20;;;;;;;5.90;3.83;;;5.70;99.90;;;;;;487336;244;28001;-72
2021/03/30 06:26:21;;;;;;;5.28;3.53;;;5.80;99.90;;;;;;487317;244;27506;-73
2021/03/30 06:28:24;;;;;;;8.57;4.50;;;5.80;99.90;;;;;;487323;244;27599;-73
2021/03/30 06:30:24;;;;;;;5.20;3.15;;;6.00;99.90;;;;;;487273;243;27532;-72
2021/03/30 06:32:25;;;;;;;10.68;4.00;;;6.00;99.90;;;;;;487352;244;27506;-72
2021/03/30 06:34:26;;;;;;;7.95;3.92;;;6.10;99.90;;;;;;487365;244;27516;-72
2021/03/30 06:36:27;;;;;;;6.78;3.83;;;6.20;99.90;;;;;;487330;244;28097;-72
2021/03/30 06:38:29;;;;;;;5.28;3.22;;;6.30;99.90;;;;;;487357;244;28099;-73
2021/03/30 06:40:33;;;;;;;5.03;3.97;;;6.40;99.90;;;;;;487354;244;28073;-73
2021/03/30 06:42:38;;;;;;;6.70;4.55;;;6.50;99.90;;;;;;487149;243;28552;-73
2021/03/30 06:44:35;;;;;;;5.33;3.40;;;6.60;99.90;;;;;;487145;243;28070;-72
2021/03/30 06:46:36;;;;;;;10.63;3.00;;;6.70;99.90;;;;;;487402;244;29076;-73
2021/03/30 06:48:38;;;;;;;5.10;3.13;;;6.80;99.90;;;;;;487447;244;27971;-73
2021/03/30 06:50:40;;;;;;;3.77;3.30;;;6.80;99.90;;;;;;487178;244;28032;-72
2021/03/30 06:52:40;;;;;;;11.90;3.53;;;6.90;99.90;;;;;;487257;244;27967;-73
2021/03/30 06:54:41;;;;;;;4.40;3.30;;;7.00;99.90;;;;;;487358;244;27987;-73
2021/03/30 06:56:43;;;;;;;8.93;3.97;;;7.00;99.90;;;;;;487320;244;28001;-73
2021/03/30 06:58:44;;;;;;;5.87;3.50;;;7.00;99.90;;;;;;487378;244;27933;-73
2021/03/30 07:00:45;;;;;;;6.07;3.13;;;7.10;99.90;;;;;;487355;244;27943;-73
2021/03/30 07:02:46;;;;;;;8.77;3.67;;;7.10;99.90;;;;;;487355;244;28554;-73
2021/03/30 07:04:48;;;;;;;5.80;3.63;;;7.20;99.90;;;;;;487318;244;27985;-73
2021/03/30 07:06:49;;;;;;;10.77;4.30;;;7.30;99.90;;;;;;487202;244;28016;-73
2021/03/30 07:08:50;;;;;;;7.43;4.47;;;7.50;99.90;;;;;;487243;244;27925;-73
2021/03/30 07:10:51;;;;;;;7.40;5.00;;;7.70;99.90;;;;;;487301;244;28070;-73
2021/03/30 07:12:53;;;;;;;7.37;4.33;;;7.90;99.90;;;;;;487219;244;28561;-73
2021/03/30 07:14:54;;;;;;;8.40;4.23;;;8.10;99.90;;;;;;487272;244;28530;-73
2021/03/30 07:16:55;;;;;;;6.87;4.10;;;8.20;99.90;;;;;;487327;244;28186;-73
2021/03/30 07:18:56;;;;;;;7.70;4.50;;;8.30;99.90;;;;;;486889;244;28577;-73
2021/03/30 07:20:58;;;;;;;7.83;4.00;;;8.40;99.90;;;;;;486992;243;27943;-73
2021/03/30 07:22:59;;;;;;;6.03;3.60;;;8.50;99.90;;;;;;487507;244;28345;-73
2021/03/30 07:25:00;;;;;;;7.40;3.33;;;8.60;99.90;;;;;;487419;244;27948;-73
2021/03/30 07:27:02;;;;;;;5.10;3.60;;;8.60;99.90;;;;;;487386;244;27926;-73
2021/03/30 07:29:03;;;;;;;7.73;4.30;;;8.60;99.90;;;;;;487343;244;28108;-73
2021/03/30 07:31:04;;;;;;;5.70;3.77;;;8.60;99.90;;;;;;487390;244;28026;-73
2021/03/30 07:33:05;;;;;;;5.30;3.50;;;8.70;99.90;;;;;;487380;244;28086;-73
2021/03/30 07:35:06;;;;;;;7.07;3.93;;;8.80;99.90;;;;;;487411;244;28155;-73
2021/03/30 07:37:08;;;;;;;7.07;3.83;;;8.80;99.90;;;;;;487333;243;28024;-73
2021/03/30 07:39:09;;;;;;;5.57;3.87;;;8.90;99.90;;;;;;487380;244;28294;-74
2021/03/30 07:41:10;;;;;;;9.70;3.77;;;8.90;99.90;;;;;;487397;244;27842;-73
2021/03/30 07:43:11;;;;;;;7.77;3.77;;;9.10;99.90;;;;;;487392;244;28105;-73
2021/03/30 07:45:13;;;;;;;8.93;3.67;;;9.30;99.90;;;;;;487237;244;28187;-73
2021/03/30 07:47:14;;;;;;;5.17;3.30;;;9.40;99.90;;;;;;486929;244;28097;-73
2021/03/30 07:49:15;;;;;;;6.90;3.70;;;9.50;99.90;;;;;;487259;244;29218;-73
2021/03/30 07:51:21;;;;;;;9.00;3.30;;;9.80;99.90;;;;;;487305;244;28122;-73
2021/03/30 07:53:18;;;;;;;4.40;2.90;;;10.70;99.90;;;;;;487063;243;28432;-73
2021/03/30 07:55:19;;;;;;;5.83;2.93;;;11.50;99.90;;;;;;487355;244;28445;-74
2021/03/30 07:57:20;;;;;;;5.27;2.70;;;12.00;99.90;;;;;;487366;244;28084;-73
2021/03/30 07:59:21;;;;;;;5.00;3.27;;;12.20;99.90;;;;;;487369;244;27992;-73
2021/03/30 08:01:23;;;;;;;5.20;3.53;;;12.50;99.90;;;;;;487371;244;27986;-73
2021/03/30 08:03:26;;;;;;;4.77;2.90;;;12.90;99.90;;;;;;487357;244;28006;-73
2021/03/30 08:05:25;;;;;;;5.50;3.30;;;12.90;99.90;;;;;;487494;243;28147;-73
2021/03/30 08:07:26;;;;;;;7.67;3.23;;;12.80;99.50;;;;;;487331;244;28222;-73
2021/03/30 08:09:28;;;;;;;8.43;3.60;;;13.10;97.90;;;;;;487349;244;28336;-73
2021/03/30 08:11:29;;;;;;;6.97;3.47;;;13.20;97.20;;;;;;487321;244;28176;-73
2021/03/30 08:13:30;;;;;;;5.77;3.90;;;13.50;95.30;;;;;;487329;244;29370;-73
2021/03/30 08:15:31;;;;;;;7.87;3.20;;;13.80;94.50;;;;;;487332;244;29344;-73
2021/03/30 08:17:33;;;;;;;4.07;3.60;;;13.80;94.50;;;;;;487360;244;28768;-73
2021/03/30 08:19:34;;;;;;;7.83;3.67;;;13.80;93.40;;;;;;487416;244;28791;-73
2021/03/30 08:21:35;;;;;;;7.90;3.40;;;14.00;91.60;;;;;;487515;244;28901;-74
2021/03/30 08:23:36;;;;;;;6.87;3.70;;;14.20;90.20;;;;;;487368;244;28317;-73
2021/03/30 08:25:38;;;;;;;5.40;3.53;;;14.10;92.00;;;;;;487325;244;28220;-73
2021/03/30 08:27:39;;;;;;;4.17;3.10;;;14.00;91.50;;;;;;487309;244;28414;-73
2021/03/30 08:29:40;;;;;;;4.37;3.10;;;14.50;88.90;;;;;;487394;244;28181;-73
2021/03/30 08:31:41;;;;;;;6.70;3.10;;;14.50;88.70;;;;;;487334;244;28219;-74
2021/03/30 08:33:43;;;;;;;6.87;3.40;;;14.60;88.90;;;;;;487355;244;28311;-75
2021/03/30 08:35:44;;;;;;;7.33;3.27;;;14.80;86.20;;;;;;487338;244;28538;-74
2021/03/30 08:37:45;;;;;;;4.83;3.20;;;14.80;86.90;;;;;;487344;244;28832;-73
2021/03/30 08:39:46;;;;;;;4.13;2.67;;;15.10;85.40;;;;;;487432;244;28970;-74
2021/03/30 08:41:48;;;;;;;8.00;2.90;;;15.20;81.10;;;;;;487346;244;28923;-74
2021/03/30 08:43:49;;;;;;;5.20;2.80;;;15.30;79.50;;;;;;487356;244;28967;-74
2021/03/30 08:45:50;;;;;;;6.13;2.73;;;15.40;78.70;;;;;;487359;244;28395;-73
2021/03/30 08:47:51;;;;;;;4.70;2.90;;;15.40;80.60;;;;;;487443;244;28929;-74
2021/03/30 08:49:53;;;;;;;5.13;2.40;;;15.30;79.20;;;;;;487509;244;28377;-73
2021/03/30 08:51:54;;;;;;;2.93;2.60;;;15.50;76.20;;;;;;487333;244;28883;-74
2021/03/30 08:53:55;;;;;;;4.70;2.50;;;15.60;78.80;;;;;;487483;244;28927;-73
2021/03/30 08:55:57;;;;;;;2.70;2.23;;;15.60;76.20;;;;;;487442;243;28823;-74
2021/03/30 08:57:58;;;;;;;3.07;2.30;;;15.80;74.60;;;;;;487454;244;28850;-74
2021/03/30 08:59:59;;;;;;;5.83;2.10;;;15.70;76.70;;;;;;487427;244;28808;-74
2021/03/30 09:02:00;;;;;;;4.67;2.30;;;15.80;75.20;;;;;;487312;244;28838;-74
2021/03/30 09:04:02;;;;;;;5.07;2.40;;;16.00;72.00;;;;;;487276;244;29482;-74
2021/03/30 09:06:03;;;;;;;4.33;2.50;;;16.10;70.30;;;;;;486739;244;29422;-74
2021/03/30 09:08:04;;;;;;;2.80;1.90;;;16.10;70.90;;;;;;486797;244;29279;-74
2021/03/30 09:10:05;;;;;;;2.90;2.00;;;16.10;72.40;;;;;;486818;244;28834;-73
2021/03/30 09:12:07;;;;;;;4.73;2.37;;;16.10;75.00;;;;;;487187;244;28823;-73
2021/03/30 09:14:08;;;;;;;2.30;2.10;;;16.30;71.00;;;;;;487272;244;28839;-74
2021/03/30 09:16:13;;;;;;;3.00;2.43;;;16.40;67.60;;;;;;487327;244;28916;-74
2021/03/30 09:18:13;;;;;;;4.50;2.80;;;16.30;67.40;;;;;;487307;244;28942;-74
2021/03/30 09:20:14;;;;;;;3.13;2.27;;;16.30;66.90;;;;;;487057;244;28919;-74
2021/03/30 09:26:36;;;;;;;4.03;2.00;;;16.50;65.00;;;;;;487349;244;28849;-74
2021/03/30 09:28:31;;;;;;;4.23;2.20;;;16.60;65.70;;;;;;487000;243;28860;-74
2021/03/30 09:30:33;;;;;;;6.10;2.10;;;16.70;64.30;;;;;;487322;244;28866;-74
2021/03/30 09:32:34;;;;;;;2.37;2.13;;;16.80;62.60;;;;;;487342;244;28851;-74
2021/03/30 09:34:35;;;;;;;3.03;2.47;;;16.90;61.30;;;;;;487357;244;28850;-74
2021/03/30 09:36:36;;;;;;;6.63;2.00;;;16.90;62.70;;;;;;487350;244;28853;-74
2021/03/30 09:38:38;;;;;;;4.50;2.10;;;17.00;59.70;;;;;;487369;244;28858;-75
2021/03/30 09:40:40;;;;;;;2.20;2.00;;;16.80;61.30;;;;;;487358;244;28910;-74
2021/03/30 09:42:40;;;;;;;5.70;2.17;;;17.10;58.10;;;;;;487353;244;29351;-74
2021/03/30 09:44:43;;;;;;;2.27;1.93;;;17.20;57.30;;;;;;487358;244;29334;-74
2021/03/30 09:46:43;;;;;;;3.80;1.97;;;17.20;57.50;;;;;;487300;243;29380;-74
2021/03/30 09:48:44;;;;;;;3.03;1.70;;;17.30;57.00;;;;;;487388;244;29362;-74
2021/03/30 09:50:45;;;;;;;2.83;1.73;;;17.20;56.20;;;;;;487437;244;28902;-74
2021/03/30 09:52:46;;;;;;;2.63;1.80;;;17.20;57.40;;;;;;487472;244;29273;-74
2021/03/30 09:54:48;;;;;;;3.57;2.33;;;17.10;59.90;;;;;;487476;244;28835;-74
2021/03/30 09:56:49;;;;;;;3.77;2.30;;;16.90;62.20;;;;;;487426;244;28818;-74
2021/03/30 09:58:50;;;;;;;8.47;1.90;;;16.80;61.50;;;;;;487398;244;28867;-74
2021/03/30 10:00:52;;;;;;;1.77;1.67;;;17.20;57.60;;;;;;487395;244;28898;-73
2021/03/30 10:02:53;;;;;;;4.37;2.00;;;17.40;57.00;;;;;;487366;244;28835;-74
2021/03/30 10:04:54;;;;;;;3.13;2.23;;;17.30;58.60;;;;;;487405;244;28835;-75
2021/03/30 10:06:55;;;;;;;1.97;1.77;;;17.20;56.70;;;;;;487455;244;29286;-74
2021/03/30 10:08:56;;;;;;;1.93;1.83;;;17.10;57.10;;;;;;487487;244;29325;-74
2021/03/30 10:10:58;;;;;;;3.33;2.33;;;17.30;57.20;;;;;;487516;244;29321;-73
2021/03/30 10:13:02;;;;;;;2.60;2.00;;;17.50;54.60;;;;;;487499;244;29328;-74
2021/03/30 10:15:00;;;;;;;1.80;1.60;;;17.60;53.30;;;;;;487357;243;28850;-74
2021/03/30 10:17:01;;;;;;;3.63;2.60;;;17.40;55.20;;;;;;487528;244;28845;-74
2021/03/30 10:19:03;;;;;;;2.13;1.97;;;17.60;56.30;;;;;;487504;244;28851;-74
2021/03/30 10:21:04;;;;;;;3.90;2.10;;;17.60;54.40;;;;;;487540;244;28791;-74
2021/03/30 10:23:05;;;;;;;2.60;2.03;;;17.80;53.50;;;;;;487449;244;28849;-74
2021/03/30 10:25:06;;;;;;;5.00;2.20;;;17.90;52.70;;;;;;487424;244;28968;-74
2021/03/30 10:27:11;;;;;;;3.87;2.10;;;18.10;53.10;;;;;;487427;244;28843;-74
2021/03/30 10:29:20;;;;;;;3.13;1.97;;;18.10;54.20;;;;;;487257;243;28877;-74
2021/03/30 10:31:22;;;;;;;2.10;1.83;;;18.30;52.10;;;;;;486935;243;29317;-74
2021/03/30 10:33:19;;;;;;;4.10;2.07;;;18.30;51.20;;;;;;487015;243;28856;-74
2021/03/30 10:35:18;;;;;;;2.70;2.40;;;18.50;50.10;;;;;;487254;243;28843;-74
2021/03/30 10:37:19;;;;;;;3.73;2.17;;;18.40;51.40;;;;;;487386;244;28945;-74
2021/03/30 10:39:21;;;;;;;3.70;1.90;;;18.50;49.20;;;;;;487409;244;28928;-74